Time;durP1;ratioP1;P1;durP2;ratioP2;P2;SDS_P1;SDS_P2;PMS_P1;PMS_P2;Temp;Humidity;BMP_temperature;BMP_pressure;BME280_temperature;BME280_humidity;BME280_pressure;Samples;Min_cycle;Max_cycle;Signal;HPM_P1;HPM_P2
2023/12/26 00:00:24;;;;;;;9.00;4.20;;;9.20;99.90;;;;;;5108091;28;20081;-54
2023/12/26 00:02:49;;;;;;;10.00;4.43;;;9.20;99.90;;;;;;5107946;28;20032;-57
2023/12/26 00:05:15;;;;;;;17.08;4.70;;;9.20;99.90;;;;;;5109115;28;20065;-51
2023/12/26 00:07:42;;;;;;;11.75;4.03;;;9.30;99.90;;;;;;5106480;28;20411;-55
2023/12/26 00:10:07;;;;;;;9.73;3.73;;;9.20;99.90;;;;;;5106927;28;20517;-55
2023/12/26 00:12:33;;;;;;;13.43;5.47;;;9.20;99.90;;;;;;5107745;28;20031;-55
2023/12/26 00:14:59;;;;;;;11.35;4.70;;;9.30;99.90;;;;;;5108432;28;20043;-54
2023/12/26 00:17:25;;;;;;;13.02;4.90;;;9.30;99.90;;;;;;5108373;28;20119;-55
2023/12/26 00:19:50;;;;;;;17.25;6.20;;;9.30;99.90;;;;;;5108477;28;20493;-57
2023/12/26 00:22:16;;;;;;;13.45;4.30;;;9.30;99.90;;;;;;5108120;28;20024;-61
2023/12/26 00:24:42;;;;;;;12.10;4.80;;;9.30;99.90;;;;;;5107087;28;20023;-54
2023/12/26 00:27:07;;;;;;;11.75;4.63;;;9.30;99.90;;;;;;5074159;28;20110;-55
2023/12/26 00:29:35;;;;;;;12.75;5.00;;;9.30;99.90;;;;;;5109479;28;20028;-55
2023/12/26 00:32:00;;;;;;;13.63;5.15;;;9.30;99.90;;;;;;5109438;28;20020;-56
2023/12/26 00:34:26;;;;;;;11.60;4.82;;;9.40;99.90;;;;;;5108177;28;20088;-56
2023/12/26 14:07:45;;;;;;;11.43;3.88;;;10.40;99.90;;;;;;5126737;27;20684;-51
2023/12/26 14:10:48;;;;;;;14.43;4.00;;;10.30;99.90;;;;;;5123067;28;20492;-52
2023/12/26 14:13:51;;;;;;;10.80;3.45;;;10.30;99.90;;;;;;5123084;27;20034;-51
2023/12/26 14:16:54;;;;;;;15.30;4.53;;;10.30;99.90;;;;;;5120768;28;20023;-53
2023/12/26 14:19:57;;;;;;;8.32;3.67;;;10.20;99.90;;;;;;5123522;28;20027;-51
2023/12/26 14:23:01;;;;;;;11.40;4.90;;;10.20;99.90;;;;;;5123370;27;20012;-51
2023/12/26 14:26:04;;;;;;;9.90;3.45;;;10.20;99.90;;;;;;5123636;28;20023;-52
2023/12/26 14:29:08;;;;;;;8.27;3.00;;;10.20;99.90;;;;;;5122942;28;20058;-55
2023/12/26 14:32:11;;;;;;;9.65;3.28;;;10.20;99.90;;;;;;5121052;28;20031;-54
2023/12/26 14:35:14;;;;;;;8.55;3.20;;;10.10;99.90;;;;;;5122232;28;20047;-54
2023/12/26 14:38:17;;;;;;;7.72;3.00;;;10.20;99.90;;;;;;5123157;28;20027;-53
2023/12/26 14:41:20;;;;;;;8.88;3.28;;;10.20;99.90;;;;;;5123298;28;20034;-56
2023/12/26 14:44:23;;;;;;;9.45;3.60;;;10.20;99.90;;;;;;5120595;27;20439;-52
2023/12/26 14:47:26;;;;;;;10.27;4.07;;;10.20;99.90;;;;;;5120338;28;20049;-53
2023/12/26 14:50:35;;;;;;;10.55;4.10;;;10.20;99.90;;;;;;5121653;28;20019;-52
2023/12/26 14:53:39;;;;;;;10.95;4.97;;;10.10;99.90;;;;;;5121920;28;20058;-54
2023/12/26 14:56:42;;;;;;;10.98;4.45;;;10.10;99.90;;;;;;5121438;28;20034;-53
2023/12/26 14:59:44;;;;;;;10.75;4.03;;;10.10;99.90;;;;;;5121740;27;20089;-54
2023/12/26 15:02:10;;;;;;;9.10;4.32;;;10.10;99.90;;;;;;5122011;27;20019;-52
2023/12/26 15:04:36;;;;;;;7.85;3.30;;;10.10;99.90;;;;;;5121798;28;20128;-53
2023/12/26 15:07:03;;;;;;;8.68;3.15;;;10.10;99.90;;;;;;5123156;28;20042;-55
2023/12/26 15:09:29;;;;;;;9.07;3.75;;;10.10;99.90;;;;;;5115380;28;20066;-54
2023/12/26 15:11:54;;;;;;;10.88;4.80;;;10.10;99.90;;;;;;5120000;28;20534;-54
2023/12/26 15:14:20;;;;;;;7.93;3.85;;;10.10;99.90;;;;;;5119948;27;20045;-52
2023/12/26 15:16:46;;;;;;;9.10;3.45;;;10.00;99.90;;;;;;5113885;28;20035;-54
2023/12/26 15:19:12;;;;;;;9.70;3.33;;;10.00;99.90;;;;;;5107352;28;20382;-52
2023/12/26 15:21:42;;;;;;;9.32;3.58;;;10.10;99.90;;;;;;5106884;28;20027;-53
2023/12/26 15:24:12;;;;;;;9.40;3.63;;;10.10;99.90;;;;;;5105934;28;20134;-53
2023/12/26 15:26:39;;;;;;;11.68;4.47;;;10.00;99.90;;;;;;5106274;28;20399;-53
2023/12/26 15:29:05;;;;;;;10.80;4.77;;;10.00;99.90;;;;;;5105731;28;20027;-56
2023/12/26 15:31:32;;;;;;;9.80;4.53;;;10.00;99.90;;;;;;5106240;28;20125;-54
2023/12/26 15:33:58;;;;;;;11.35;4.35;;;10.00;99.90;;;;;;5104774;28;20053;-54
2023/12/26 15:36:25;;;;;;;13.10;5.10;;;10.00;99.90;;;;;;5105418;28;20028;-56
2023/12/26 15:38:55;;;;;;;10.50;4.78;;;10.00;99.90;;;;;;5086903;28;20489;-55
2023/12/26 15:41:23;;;;;;;12.68;5.05;;;10.00;99.90;;;;;;5106865;28;20394;-53
2023/12/26 15:43:49;;;;;;;13.98;5.10;;;10.00;99.90;;;;;;5106098;28;20126;-54
2023/12/26 15:46:33;;;;;;;15.60;6.07;;;10.00;99.90;;;;;;5105399;28;20038;-55
2023/12/26 15:49:00;;;;;;;14.77;5.40;;;9.90;99.90;;;;;;5106602;28;20104;-53
2023/12/26 15:51:25;;;;;;;13.05;5.60;;;10.00;99.90;;;;;;5106396;28;20042;-53
2023/12/26 15:53:52;;;;;;;14.68;5.38;;;10.00;99.90;;;;;;5106430;28;20390;-55
2023/12/26 15:56:27;;;;;;;14.90;6.15;;;9.90;99.90;;;;;;5106294;28;20031;-53
2023/12/26 15:58:53;;;;;;;14.93;5.65;;;10.00;99.90;;;;;;5105732;28;20042;-53
2023/12/26 16:01:20;;;;;;;13.38;5.70;;;10.00;99.90;;;;;;5105313;28;20431;-53
2023/12/26 16:03:53;;;;;;;;;;;10.00;99.90;;;;;;5106467;28;20031;-53
2023/12/26 16:06:23;;;;;;;13.50;5.20;;;9.90;99.90;;;;;;5106056;28;20303;-54
2023/12/26 16:08:48;;;;;;;14.93;6.38;;;9.90;99.90;;;;;;5106226;28;20443;-52
2023/12/26 16:11:14;;;;;;;15.10;6.22;;;9.90;99.90;;;;;;5106231;28;20023;-54
2023/12/26 16:13:40;;;;;;;15.30;6.38;;;9.90;99.90;;;;;;5108547;28;20549;-55
2023/12/26 16:16:06;;;;;;;15.57;6.05;;;9.90;99.90;;;;;;5108735;28;20110;-55
2023/12/26 16:18:32;;;;;;;18.15;6.93;;;9.80;99.90;;;;;;5106747;28;20070;-53
2023/12/26 16:20:58;;;;;;;23.20;8.77;;;9.90;99.90;;;;;;5109810;28;20024;-53
2023/12/26 16:23:25;;;;;;;22.83;8.85;;;9.80;99.90;;;;;;5109383;28;20027;-53
2023/12/26 16:25:50;;;;;;;17.45;7.97;;;9.80;99.90;;;;;;5106578;28;20044;-53
2023/12/26 16:28:16;;;;;;;14.23;6.53;;;9.70;99.90;;;;;;5106814;28;20062;-54
2023/12/26 16:47:43;;;;;;;18.48;8.93;;;9.00;99.90;;;;;;5119007;27;20384;-54
2023/12/26 16:50:09;;;;;;;16.20;7.65;;;8.90;99.90;;;;;;5100516;28;20374;-53
2023/12/26 16:52:35;;;;;;;18.13;8.18;;;8.90;99.90;;;;;;5096654;28;20034;-55
2023/12/26 16:55:00;;;;;;;12.30;7.28;;;8.80;99.90;;;;;;5096509;28;20381;-52
2023/12/26 16:57:28;;;;;;;15.20;6.30;;;8.80;99.90;;;;;;5100498;28;20031;-54
2023/12/26 16:59:55;;;;;;;16.10;8.55;;;8.80;99.90;;;;;;5098929;28;20036;-51
2023/12/26 17:02:20;;;;;;;15.07;6.93;;;8.80;99.90;;;;;;5097879;28;20043;-54
2023/12/26 17:04:46;;;;;;;12.35;5.60;;;8.80;99.90;;;;;;5099970;28;20032;-53
2023/12/26 17:07:12;;;;;;;15.93;6.43;;;8.80;99.90;;;;;;5099319;28;20547;-53
2023/12/26 17:09:41;;;;;;;13.38;5.78;;;8.80;99.90;;;;;;5099846;28;20533;-55
2023/12/26 17:12:09;;;;;;;16.40;6.43;;;8.80;99.90;;;;;;5099217;28;20036;-52
2023/12/26 17:14:35;;;;;;;16.73;7.65;;;8.80;99.90;;;;;;5099925;28;20032;-52
2023/12/26 17:17:01;;;;;;;16.90;7.47;;;8.90;99.90;;;;;;5101041;28;20024;-53
2023/12/26 17:19:27;;;;;;;28.05;11.27;;;8.90;99.90;;;;;;5099208;28;20043;-52
2023/12/26 17:21:53;;;;;;;14.82;6.30;;;9.00;99.90;;;;;;5098527;28;20031;-55
2023/12/26 17:24:20;;;;;;;9.95;5.30;;;9.00;99.90;;;;;;5099795;28;20080;-51
2023/12/26 17:26:46;;;;;;;11.63;5.30;;;9.10;99.90;;;;;;5100384;28;20531;-52
2023/12/26 17:29:12;;;;;;;15.15;6.30;;;9.10;99.90;;;;;;5100360;28;20028;-51
2023/12/26 17:31:37;;;;;;;12.30;4.95;;;9.10;99.90;;;;;;5099369;28;20023;-52
2023/12/26 17:34:03;;;;;;;11.43;4.70;;;9.00;99.90;;;;;;5098926;28;20028;-53
2023/12/26 17:36:29;;;;;;;11.43;4.53;;;9.10;99.90;;;;;;5098525;28;20059;-53
2023/12/26 17:38:54;;;;;;;8.13;3.63;;;9.00;99.90;;;;;;5099338;28;20048;-52
2023/12/26 17:41:21;;;;;;;12.10;5.25;;;9.00;99.90;;;;;;5099700;28;20028;-54
2023/12/26 17:43:47;;;;;;;7.65;3.33;;;9.00;99.90;;;;;;5098817;28;20377;-54
2023/12/26 17:46:12;;;;;;;10.02;4.15;;;9.00;99.90;;;;;;5099471;28;20059;-53
2023/12/26 17:48:38;;;;;;;14.90;5.97;;;8.90;99.90;;;;;;5098863;28;20016;-51
2023/12/26 17:51:04;;;;;;;15.30;5.75;;;8.80;99.90;;;;;;5099892;28;20024;-53
2023/12/26 17:53:30;;;;;;;12.70;3.88;;;8.80;99.90;;;;;;5100731;28;20042;-54
2023/12/26 17:55:55;;;;;;;12.27;4.13;;;8.80;99.90;;;;;;5099566;28;20024;-54
2023/12/26 18:08:10;;;;;;;12.73;4.38;;;8.60;99.90;;;;;;5043531;28;20439;-52
2023/12/26 18:10:35;;;;;;;8.60;3.70;;;8.50;99.90;;;;;;5049489;28;20071;-53
2023/12/26 18:13:01;;;;;;;14.02;4.10;;;8.40;99.90;;;;;;5057123;28;20087;-54
2023/12/26 18:15:27;;;;;;;10.05;4.47;;;8.30;99.90;;;;;;5059069;28;20778;-50
2023/12/26 18:17:53;;;;;;;11.38;4.90;;;8.30;99.90;;;;;;5059483;28;20111;-53
2023/12/26 18:20:19;;;;;;;13.68;4.78;;;8.20;99.90;;;;;;5057336;28;20037;-52
2023/12/26 18:22:44;;;;;;;10.40;4.45;;;8.30;99.90;;;;;;5060103;28;20044;-54
2023/12/26 18:25:10;;;;;;;12.82;5.05;;;8.30;99.90;;;;;;5056863;28;20472;-52
2023/12/26 18:27:36;;;;;;;8.43;4.10;;;8.20;99.90;;;;;;5057426;28;20112;-52
2023/12/26 18:30:02;;;;;;;8.90;3.33;;;8.30;99.90;;;;;;5059724;28;20035;-51
2023/12/26 18:32:27;;;;;;;11.50;3.85;;;8.20;99.90;;;;;;5056357;28;20747;-51
2023/12/26 18:34:54;;;;;;;9.25;4.45;;;8.30;99.90;;;;;;5058652;28;20044;-53
2023/12/26 18:37:19;;;;;;;5.88;2.83;;;8.30;99.90;;;;;;5059842;28;20044;-55
2023/12/26 18:39:45;;;;;;;7.43;2.83;;;8.30;99.90;;;;;;5060652;28;20159;-52
2023/12/26 18:42:11;;;;;;;9.25;2.67;;;8.30;99.90;;;;;;5058382;28;20025;-52
2023/12/26 18:44:36;;;;;;;5.03;2.25;;;8.30;99.90;;;;;;5059427;28;20025;-53
2023/12/26 18:47:02;;;;;;;9.15;2.85;;;8.30;99.90;;;;;;5058117;28;20208;-52
2023/12/26 18:49:28;;;;;;;8.95;3.47;;;8.30;99.90;;;;;;5059163;28;20020;-53
2023/12/26 18:51:55;;;;;;;8.70;4.03;;;8.20;99.90;;;;;;5060042;28;20021;-51
2023/12/26 18:54:22;;;;;;;16.33;7.28;;;8.30;99.90;;;;;;5058602;28;20033;-52
2023/12/26 18:56:48;;;;;;;25.25;11.68;;;8.30;99.90;;;;;;5057141;28;20029;-54
2023/12/26 18:59:15;;;;;;;35.72;15.25;;;8.20;99.90;;;;;;5058960;28;20040;-54
2023/12/26 19:01:42;;;;;;;31.52;14.05;;;8.20;99.90;;;;;;5056921;28;20028;-52
2023/12/26 19:04:08;;;;;;;45.08;20.15;;;8.10;99.90;;;;;;5056759;28;20045;-52
2023/12/26 19:06:35;;;;;;;37.65;16.98;;;8.10;99.90;;;;;;5060231;28;20048;-52
2023/12/26 19:09:01;;;;;;;36.03;15.55;;;8.10;99.90;;;;;;5059804;28;20411;-52
2023/12/26 19:11:27;;;;;;;38.40;17.95;;;8.10;99.90;;;;;;5059003;28;20066;-53
2023/12/26 19:13:53;;;;;;;36.95;15.73;;;8.20;99.90;;;;;;5058436;28;20543;-52
2023/12/26 19:16:21;;;;;;;25.02;10.95;;;8.10;99.90;;;;;;5059314;28;20467;-50
2023/12/26 19:18:47;;;;;;;26.17;11.45;;;8.20;99.90;;;;;;5049492;28;20057;-53
2023/12/26 19:21:13;;;;;;;26.70;11.68;;;8.20;99.90;;;;;;5046786;28;20067;-53
2023/12/26 19:32:57;;;;;;;22.38;10.05;;;8.10;99.90;;;;;;5038493;28;20429;-55
2023/12/26 19:35:23;;;;;;;27.02;12.85;;;8.00;99.90;;;;;;5038031;28;20075;-55
2023/12/26 19:37:48;;;;;;;29.58;14.05;;;8.00;99.90;;;;;;5037961;28;20037;-55
2023/12/26 19:40:17;;;;;;;33.60;15.02;;;7.90;99.90;;;;;;5039061;28;20025;-54
2023/12/26 19:42:43;;;;;;;26.55;11.20;;;7.90;99.90;;;;;;5038944;28;20017;-56
2023/12/26 19:45:08;;;;;;;20.80;8.25;;;7.80;99.90;;;;;;5038096;28;20021;-51
2023/12/26 19:47:34;;;;;;;15.30;7.18;;;7.80;99.90;;;;;;5039178;28;20025;-52
2023/12/26 19:50:00;;;;;;;11.32;5.50;;;7.80;99.90;;;;;;5036657;28;20041;-53
2023/12/26 19:52:25;;;;;;;9.13;4.30;;;7.80;99.90;;;;;;5038797;28;20064;-57
2023/12/26 19:54:52;;;;;;;10.13;4.07;;;7.90;99.90;;;;;;5040042;28;20034;-54
2023/12/26 19:57:21;;;;;;;12.32;5.82;;;7.90;99.90;;;;;;5038390;28;20029;-53
2023/12/26 19:59:47;;;;;;;16.00;7.18;;;7.90;99.90;;;;;;5037514;28;20041;-53
2023/12/26 20:02:13;;;;;;;10.00;4.88;;;7.80;99.90;;;;;;5039866;28;20076;-52
2023/12/26 20:04:39;;;;;;;11.48;5.40;;;7.80;99.90;;;;;;5038050;28;20475;-55
2023/12/26 20:07:06;;;;;;;11.98;5.32;;;7.80;99.90;;;;;;5040170;28;20041;-54
2023/12/26 20:09:32;;;;;;;16.05;6.13;;;7.80;99.90;;;;;;5039941;28;20030;-53
2023/12/26 20:11:58;;;;;;;10.20;4.80;;;7.80;99.90;;;;;;5039028;28;20052;-55
2023/12/26 20:14:24;;;;;;;8.70;3.95;;;7.70;99.90;;;;;;5038175;28;20036;-54
2023/12/26 20:16:50;;;;;;;8.07;3.33;;;7.60;99.90;;;;;;5039957;28;20059;-53
2023/12/26 20:19:17;;;;;;;5.03;2.55;;;7.50;99.90;;;;;;5039752;28;20415;-53
2023/12/26 20:21:43;;;;;;;8.48;2.75;;;7.30;99.90;;;;;;5039509;28;20079;-53
2023/12/26 20:24:10;;;;;;;7.13;2.27;;;7.30;99.90;;;;;;5039926;28;20032;-54
2023/12/26 20:26:51;;;;;;;7.15;2.45;;;7.20;99.90;;;;;;5039066;28;20041;-53
2023/12/26 20:29:19;;;;;;;11.07;3.13;;;7.10;99.90;;;;;;5037811;28;20041;-55
2023/12/26 20:31:48;;;;;;;7.38;2.40;;;7.10;99.90;;;;;;5037769;28;20546;-54
2023/12/26 20:34:15;;;;;;;5.93;2.15;;;7.00;99.90;;;;;;5040512;28;20025;-52
2023/12/26 20:36:45;;;;;;;6.75;2.80;;;7.00;99.90;;;;;;5039356;28;20025;-50
2023/12/26 20:39:13;;;;;;;6.80;2.42;;;7.00;99.90;;;;;;5038459;28;20039;-51
2023/12/26 20:41:40;;;;;;;6.38;2.58;;;7.10;99.90;;;;;;5039466;28;20025;-55
2023/12/26 20:44:05;;;;;;;5.13;2.80;;;7.10;99.90;;;;;;5025437;28;20065;-66
2023/12/26 20:46:31;;;;;;;8.10;2.95;;;7.10;99.90;;;;;;5025851;28;20032;-58
2023/12/26 20:48:57;;;;;;;9.30;3.05;;;7.10;99.90;;;;;;5024872;28;20040;-57
2023/12/26 20:51:23;;;;;;;8.77;3.35;;;7.10;99.90;;;;;;5026105;28;20055;-61
2023/12/26 20:53:49;;;;;;;6.00;2.50;;;7.10;99.90;;;;;;5024938;28;20025;-55
2023/12/26 20:56:16;;;;;;;5.50;1.88;;;7.20;99.90;;;;;;5016486;28;20104;-62
2023/12/26 20:58:43;;;;;;;7.77;2.93;;;7.20;99.90;;;;;;5039154;28;20029;-61
2023/12/26 21:01:10;;;;;;;8.10;2.65;;;7.20;99.90;;;;;;5045606;28;20135;-55
2023/12/26 21:03:36;;;;;;;;;;;7.10;99.90;;;;;;5046376;28;20117;-54
2023/12/26 21:06:02;;;;;;;8.77;3.03;;;7.10;99.90;;;;;;5012054;28;19909;-60
2023/12/26 21:08:28;;;;;;;8.80;3.97;;;7.10;99.90;;;;;;5007023;28;20081;-57
2023/12/26 21:10:57;;;;;;;10.32;3.13;;;7.10;99.90;;;;;;5019723;28;20045;-60
2023/12/26 21:13:22;;;;;;;11.07;4.55;;;7.00;99.90;;;;;;5025776;28;20052;-56
2023/12/26 21:15:50;;;;;;;11.25;4.63;;;7.00;99.90;;;;;;5026827;28;20026;-57
2023/12/26 21:18:15;;;;;;;;;;;7.00;99.90;;;;;;5025191;28;20095;-56
2023/12/26 21:20:41;;;;;;;12.18;5.05;;;7.00;99.90;;;;;;5025066;28;19909;-54
2023/12/26 21:23:07;;;;;;;12.57;4.60;;;6.90;99.90;;;;;;5025394;28;20824;-56
2023/12/26 21:25:32;;;;;;;11.82;5.28;;;6.90;99.90;;;;;;5025025;28;20021;-56
2023/12/26 21:28:00;;;;;;;13.77;4.95;;;6.80;99.90;;;;;;5025774;28;20025;-57
2023/12/26 21:30:27;;;;;;;13.98;5.55;;;6.80;99.90;;;;;;5026062;28;20018;-54
2023/12/26 21:32:52;;;;;;;15.50;6.05;;;6.80;99.90;;;;;;5024438;28;20467;-55
2023/12/26 21:35:18;;;;;;;17.58;6.95;;;6.80;99.90;;;;;;5026403;28;20056;-58
2023/12/26 21:37:44;;;;;;;21.35;7.93;;;6.80;99.90;;;;;;5022338;28;20037;-54
2023/12/26 21:40:10;;;;;;;19.95;7.22;;;6.80;99.90;;;;;;5025894;28;20032;-55
2023/12/26 21:42:39;;;;;;;14.00;5.00;;;6.80;99.90;;;;;;5025759;28;20033;-56
2023/12/26 21:45:09;;;;;;;10.73;5.00;;;6.80;99.90;;;;;;5021156;28;20038;-57
2023/12/26 21:47:35;;;;;;;8.38;5.13;;;6.80;99.90;;;;;;5025770;28;20366;-63
2023/12/26 21:50:00;;;;;;;11.48;5.00;;;6.70;99.90;;;;;;5025469;28;20082;-56
2023/12/26 21:52:28;;;;;;;13.23;5.57;;;6.70;99.90;;;;;;5024842;28;20037;-55
2023/12/26 21:54:54;;;;;;;20.80;7.65;;;6.60;99.90;;;;;;5022793;28;20048;-58
2023/12/26 21:57:19;;;;;;;23.27;8.27;;;6.60;99.90;;;;;;5024381;28;20018;-52
2023/12/26 21:59:45;;;;;;;28.17;8.73;;;6.50;99.90;;;;;;5024775;28;20982;-59
2023/12/26 22:02:10;;;;;;;37.58;11.63;;;6.50;99.90;;;;;;5024649;28;20394;-56
2023/12/26 22:04:39;;;;;;;38.72;13.32;;;6.30;99.90;;;;;;5024799;28;20029;-56
2023/12/26 22:07:05;;;;;;;40.08;12.25;;;6.20;99.90;;;;;;5025498;28;20373;-54
2023/12/26 22:09:31;;;;;;;39.30;12.43;;;6.20;99.90;;;;;;5025107;28;20108;-53
2023/12/26 22:11:59;;;;;;;41.83;13.10;;;6.10;99.90;;;;;;5024875;28;20102;-57
2023/12/26 22:14:25;;;;;;;31.80;10.07;;;6.10;99.90;;;;;;5025269;28;20045;-54
2023/12/26 22:16:50;;;;;;;18.80;6.78;;;6.10;99.90;;;;;;5024801;28;20029;-54
2023/12/26 22:19:16;;;;;;;12.98;5.47;;;6.10;99.90;;;;;;5024475;28;20029;-59
2023/12/26 22:21:43;;;;;;;11.57;4.65;;;6.10;99.90;;;;;;5024962;28;20091;-55
2023/12/26 22:24:08;;;;;;;8.23;3.55;;;6.20;99.90;;;;;;5025253;28;20113;-52
2023/12/26 22:26:40;;;;;;;6.32;3.45;;;6.20;99.90;;;;;;5025165;28;20455;-54
2023/12/26 22:29:06;;;;;;;8.55;3.92;;;6.30;99.90;;;;;;5025526;28;20027;-53
2023/12/26 22:31:32;;;;;;;7.50;3.35;;;6.30;99.90;;;;;;5024660;28;20049;-54
2023/12/26 22:33:57;;;;;;;10.05;3.60;;;6.40;99.90;;;;;;5023329;28;20164;-56
2023/12/26 22:36:23;;;;;;;8.50;3.70;;;6.40;99.90;;;;;;5024763;28;20049;-55
2023/12/26 22:38:48;;;;;;;10.48;4.05;;;6.40;99.90;;;;;;5024634;28;20491;-57
2023/12/26 22:41:20;;;;;;;8.35;2.67;;;6.40;99.90;;;;;;5024782;28;20028;-53
2023/12/26 22:43:46;;;;;;;9.13;2.70;;;6.50;99.90;;;;;;5022892;28;20393;-58
2023/12/26 22:46:19;;;;;;;6.95;2.72;;;6.60;99.90;;;;;;5023875;28;20088;-57
2023/12/26 22:48:44;;;;;;;6.35;2.92;;;6.60;99.90;;;;;;5024531;28;20026;-56
2023/12/26 22:51:20;;;;;;;9.30;3.80;;;6.60;99.90;;;;;;5023770;28;20059;-55
2023/12/26 22:53:46;;;;;;;8.82;3.67;;;6.60;99.90;;;;;;5022211;28;20048;-55
